Pittsford, New York
Current Conditions -  °F | °C
As of 12:54 AM on Wednesday 28 Jan 2015 (Local Time) from KROC Reporting Station
Clear Clear  
Wind Chill: -8°   Ceiling: Unl
Heat Index:   Visibility: 10mi
Dew Point: -3°   Wind: 5mph
Humidity: 80%   Direction: 240°WSW
Pressure: 30.09"   Gusts: NA
Location:  43.09°N, 77.51°W
Report Text: KROC 280554Z 24004KT 10SM CLR M17/M19 A3009 RMK AO2 SLP204 4/002 T11671194 11100 21167 50003
Loading
Personal Weather Stations






























Interactive Weather Map New forecast layout! Learn more

10-Day Weather Forecast

Advertisements
Track Severe Weather on mobile